Aviation Digital Data Service (ADDS)

Output produced by METARs form (0449 UTC 31 October 2014)
found at http://www.aviationweather.gov/adds/metars/
 
KDUJ 310353Z AUTO 00000KT 10SM OVC045 05/03 A3001 RMK AO2 SLP168 T00500028
KDUJ 310253Z AUTO 24003KT 10SM OVC046 04/03 A3002 RMK AO2 SLP173 T00440033 56004
KDUJ 310153Z AUTO 00000KT 10SM OVC047 05/03 A3002 RMK AO2 SLP174 T00500028
KDUJ 310053Z AUTO 00000KT 10SM SCT029 OVC050 06/03 A3002 RMK AO2 SLP174 T00560028
KDUJ 302353Z AUTO 26005KT 10SM BKN036 OVC049 06/03 A3003 RMK AO2 SLP178 T00610028 10094 20061 50003
KDUJ 302253Z AUTO 26006KT 10SM SCT038 OVC048 07/03 A3003 RMK AO2 SLP179 T00670028
KDUJ 302153Z AUTO 27007KT 10SM OVC048 07/01 A3002 RMK AO2 SLP174 T00720011
KDUJ 302053Z AUTO 30006KT 10SM OVC045 08/01 A3002 RMK AO2 SLP173 T00780006 55006
KDUJ 301953Z AUTO 27007KT 10SM SCT036 OVC046 09/02 A3002 RMK AO2 SLP171 T00940017
KDUJ 301853Z AUTO VRB05KT 10SM SCT031 OVC049 08/01 A3003 RMK AO2 SLP176 T00780011
KDUJ 301753Z AUTO 29007KT 10SM OVC035 07/01 A3004 RMK AO2 SLP179 T00720011 10089 20050 58005
KDUJ 301653Z AUTO 31007KT 10SM OVC038 08/01 A3005 RMK AO2 SLP182 T00780006
KDUJ 301553Z AUTO 27008KT 10SM FEW025 BKN036 BKN043 09/02 A3005 RMK AO2 SLP183 T00890022
KDUJ 301453Z AUTO 30010KT 10SM SCT022 SCT028 BKN042 08/02 A3005 RMK AO2 SLP183 T00780022 50006
KDUJ 301440Z AUTO 34008KT 10SM SCT023 BKN028 07/02 A3005 RMK AO2 T00670017
KDUJ 301420Z AUTO 34007KT 300V010 10SM SCT019 BKN044 06/02 A3005 RMK AO2 T00610022
KDUJ 301353Z AUTO 32010G14KT 10SM SCT011 BKN018 OVC046 06/03 A3006 RMK AO2 SLP185 T00610028
KDUJ 301312Z AUTO 30006KT 10SM BKN011 OVC043 06/03 A3005 RMK AO2 T00560033
KDUJ 301253Z AUTO 30006KT 10SM FEW009 BKN021 OVC043 05/03 A3005 RMK AO2 SLP183 T00500033
KDUJ 301221Z AUTO 28006KT 10SM SCT008 BKN018 OVC034 05/03 A3004 RMK AO2 T00500033
KDUJ 301209Z AUTO 29006KT 10SM SCT010 BKN016 OVC021 05/03 A3003 RMK AO2 T00500033
KDUJ 301153Z AUTO 29006KT 10SM BKN010 OVC022 05/03 A3003 RMK AO2 SLP176 T00500033 10056 20044 51012
KDUJ 301128Z AUTO 28006KT 10SM BKN010 OVC026 04/03 A3003 RMK AO2 T00440033
KDUJ 301053Z AUTO 28005KT 10SM SCT011 BKN026 OVC060 04/03 A3002 RMK AO2 SLP173 T00440033
KDUJ 301032Z AUTO 27003KT 10SM SCT018 BKN025 OVC060 04/03 A3002 RMK AO2 T00440028
KDUJ 301004Z AUTO 28003KT 10SM SCT022 OVC060 05/03 A3001 RMK AO2 T00500028
KDUJ 300953Z AUTO 29004KT 10SM SCT019 BKN025 OVC060 05/03 A3001 RMK AO2 SLP168 T00500028
KDUJ 300940Z AUTO 32006KT 10SM SCT010 BKN019 OVC025 05/03 A3001 RMK AO2 T00500028
KDUJ 300853Z AUTO 31006KT 10SM OVC011 05/03 A3000 RMK AO2 SLP163 T00500028 53001
KDUJ 300807Z AUTO 30006KT 10SM BKN012 OVC060 05/03 A2999 RMK AO2 T00500028
KDUJ 300753Z AUTO 29005KT 10SM SCT014 OVC060 05/03 A2999 RMK AO2 SLP161 T00500028
KDUJ 300720Z AUTO 29006KT 10SM SCT015 OVC065 05/03 A2999 RMK AO2 T00500028
KDUJ 300653Z AUTO 29007KT 10SM BKN016 BKN034 OVC065 06/02 A2999 RMK AO2 SLP159 T00560022
KDUJ 300615Z AUTO 29005KT 10SM BKN023 BKN034 OVC065 06/02 A2999 RMK AO2 T00560022
KDUJ 300553Z AUTO 29008KT 10SM FEW024 OVC065 06/02 A2999 RMK AO2 SLP162 T00560022 10094 20056 54000
KDUJ 300453Z AUTO 29010G15KT 10SM OVC065 06/02 A2999 RMK AO2 SLP161 T00610022 401220061
KDUJ 300353Z AUTO 29005KT 10SM FEW047 OVC065 06/02 A2999 RMK AO2 SLP161 T00610017
KDUJ 300253Z AUTO 28006KT 10SM OVC065 07/02 A2999 RMK AO2 SLP161 T00670017 53008
KDUJ 300153Z AUTO 28007KT 10SM OVC060 07/02 A2998 RMK AO2 SLP158 T00720017
KDUJ 300053Z AUTO 29008KT 10SM OVC060 08/02 A2997 RMK AO2 SLP155 T00830022
KDUJ 292353Z AUTO 27009KT 10SM OVC060 09/02 A2997 RMK AO2 SLP152 T00940017 10122 20089 53014
KDUJ 292253Z AUTO 27007KT 10SM OVC060 09/02 A2995 RMK AO2 SLP146 T00940017
KDUJ 292153Z AUTO 27009KT 10SM BKN060 10/02 A2993 RMK AO2 SLP139 T01000017
KDUJ 292053Z AUTO 27008KT 10SM OVC050 10/02 A2993 RMK AO2 SLP137 T01000017 55004
KDUJ 291953Z AUTO 25014G22KT 10SM OVC045 12/02 A2992 RMK AO2 SLP134 T01170017
KDUJ 291853Z AUTO 24015G18KT 10SM SCT044 12/02 A2992 RMK AO2 SLP133 T01170017
KDUJ 291753Z AUTO 27007G16KT 10SM CLR 09/01 A2994 RMK AO2 SLP140 T00940011 10100 20072 58007
KDUJ 291653Z AUTO 26008KT 10SM CLR 09/02 A2995 RMK AO2 SLP143 T00940022